sensor_id;sensor_type;location;lat;lon;timestamp;temperature;humidity
19799;DHT22;10059;59.850;10.454;2022-07-23T00:00:08;12.60;99.90
19799;DHT22;10059;59.850;10.454;2022-07-23T00:02:36;12.60;99.90
19799;DHT22;10059;59.850;10.454;2022-07-23T00:05:12;12.60;99.90
19799;DHT22;10059;59.850;10.454;2022-07-23T00:07:39;12.60;99.90
19799;DHT22;10059;59.850;10.454;2022-07-23T00:10:15;12.60;99.90
19799;DHT22;10059;59.850;10.454;2022-07-23T00:12:42;12.50;99.90
19799;DHT22;10059;59.850;10.454;2022-07-23T00:15:10;12.50;99.90
19799;DHT22;10059;59.850;10.454;2022-07-23T00:17:38;12.50;99.90
19799;DHT22;10059;59.850;10.454;2022-07-23T00:20:25;12.40;99.90
19799;DHT22;10059;59.850;10.454;2022-07-23T00:25:34;12.40;99.90
19799;DHT22;10059;59.850;10.454;2022-07-23T00:28:02;12.40;99.90
19799;DHT22;10059;59.850;10.454;2022-07-23T00:30:44;12.40;99.90
19799;DHT22;10059;59.850;10.454;2022-07-23T00:33:12;12.30;99.90
19799;DHT22;10059;59.850;10.454;2022-07-23T00:35:40;12.30;99.90
19799;DHT22;10059;59.850;10.454;2022-07-23T00:38:08;12.30;99.90
19799;DHT22;10059;59.850;10.454;2022-07-23T00:40:37;12.30;99.90
19799;DHT22;10059;59.850;10.454;2022-07-23T00:43:04;12.20;99.90
19799;DHT22;10059;59.850;10.454;2022-07-23T00:45:31;12.20;99.90
19799;DHT22;10059;59.850;10.454;2022-07-23T00:47:58;12.10;99.90
19799;DHT22;10059;59.850;10.454;2022-07-23T00:50:27;12.10;99.90
19799;DHT22;10059;59.850;10.454;2022-07-23T00:53:08;12.10;99.90
19799;DHT22;10059;59.850;10.454;2022-07-23T00:55:36;12.10;99.90
19799;DHT22;10059;59.850;10.454;2022-07-23T00:58:15;12.00;99.90
19799;DHT22;10059;59.850;10.454;2022-07-23T01:00:42;12.00;99.90
19799;DHT22;10059;59.850;10.454;2022-07-23T01:03:33;12.00;99.90
19799;DHT22;10059;59.850;10.454;2022-07-23T01:06:30;12.00;99.90
19799;DHT22;10059;59.850;10.454;2022-07-23T01:09:23;12.10;99.90
19799;DHT22;10059;59.850;10.454;2022-07-23T01:11:50;12.20;99.90
19799;DHT22;10059;59.850;10.454;2022-07-23T01:14:18;12.00;99.90
19799;DHT22;10059;59.850;10.454;2022-07-23T01:16:47;12.10;99.90
19799;DHT22;10059;59.850;10.454;2022-07-23T01:19:15;12.10;99.90
19799;DHT22;10059;59.850;10.454;2022-07-23T01:21:45;12.10;99.90
19799;DHT22;10059;59.850;10.454;2022-07-23T01:24:14;12.10;99.90
19799;DHT22;10059;59.850;10.454;2022-07-23T01:26:43;12.00;99.90
19799;DHT22;10059;59.850;10.454;2022-07-23T01:29:10;12.00;99.90
19799;DHT22;10059;59.850;10.454;2022-07-23T01:31:40;12.00;99.90
19799;DHT22;10059;59.850;10.454;2022-07-23T01:34:07;12.00;99.90
19799;DHT22;10059;59.850;10.454;2022-07-23T01:36:34;12.10;99.90
19799;DHT22;10059;59.850;10.454;2022-07-23T01:39:02;12.10;99.90
19799;DHT22;10059;59.850;10.454;2022-07-23T01:41:30;12.20;99.90
19799;DHT22;10059;59.850;10.454;2022-07-23T01:43:57;12.20;99.90
19799;DHT22;10059;59.850;10.454;2022-07-23T01:46:38;12.10;99.90
19799;DHT22;10059;59.850;10.454;2022-07-23T01:49:16;12.00;99.90
19799;DHT22;10059;59.850;10.454;2022-07-23T01:51:43;11.90;99.90
19799;DHT22;10059;59.850;10.454;2022-07-23T01:54:24;12.00;99.90
19799;DHT22;10059;59.850;10.454;2022-07-23T01:56:52;11.90;99.90
19799;DHT22;10059;59.850;10.454;2022-07-23T01:59:19;11.90;99.90
19799;DHT22;10059;59.850;10.454;2022-07-23T02:01:46;11.90;99.90
19799;DHT22;10059;59.850;10.454;2022-07-23T02:04:14;11.90;99.90
19799;DHT22;10059;59.850;10.454;2022-07-23T02:06:49;11.90;99.90
19799;DHT22;10059;59.850;10.454;2022-07-23T02:09:16;11.90;99.90
19799;DHT22;10059;59.850;10.454;2022-07-23T02:11:43;11.80;99.90
19799;DHT22;10059;59.850;10.454;2022-07-23T02:14:12;11.80;99.90
19799;DHT22;10059;59.850;10.454;2022-07-23T02:16:39;11.80;99.90
19799;DHT22;10059;59.850;10.454;2022-07-23T02:21:48;11.80;99.90
19799;DHT22;10059;59.850;10.454;2022-07-23T02:24:15;11.70;99.90
19799;DHT22;10059;59.850;10.454;2022-07-23T02:26:56;11.70;99.90
19799;DHT22;10059;59.850;10.454;2022-07-23T02:29:24;11.70;99.90
19799;DHT22;10059;59.850;10.454;2022-07-23T02:31:51;11.70;99.90
19799;DHT22;10059;59.850;10.454;2022-07-23T02:34:18;11.60;99.90
19799;DHT22;10059;59.850;10.454;2022-07-23T02:36:45;11.60;99.90
19799;DHT22;10059;59.850;10.454;2022-07-23T02:39:35;11.70;99.90
19799;DHT22;10059;59.850;10.454;2022-07-23T02:42:02;11.80;99.90
19799;DHT22;10059;59.850;10.454;2022-07-23T02:44:30;11.80;99.90
19799;DHT22;10059;59.850;10.454;2022-07-23T02:50:09;12.00;99.90
19799;DHT22;10059;59.850;10.454;2022-07-23T02:52:37;11.80;99.90
19799;DHT22;10059;59.850;10.454;2022-07-23T02:55:05;11.70;99.90
19799;DHT22;10059;59.850;10.454;2022-07-23T02:57:32;11.60;99.90
19799;DHT22;10059;59.850;10.454;2022-07-23T03:00:00;11.60;99.90
19799;DHT22;10059;59.850;10.454;2022-07-23T03:02:27;11.60;99.90
19799;DHT22;10059;59.850;10.454;2022-07-23T03:04:54;11.60;99.90
19799;DHT22;10059;59.850;10.454;2022-07-23T03:07:39;11.60;99.90
19799;DHT22;10059;59.850;10.454;2022-07-23T03:10:06;11.60;99.90
19799;DHT22;10059;59.850;10.454;2022-07-23T03:12:33;11.60;99.90
19799;DHT22;10059;59.850;10.454;2022-07-23T03:15:17;11.60;99.90
19799;DHT22;10059;59.850;10.454;2022-07-23T03:18:14;11.60;99.90
19799;DHT22;10059;59.850;10.454;2022-07-23T03:20:31;11.70;99.90
19799;DHT22;10059;59.850;10.454;2022-07-23T03:22:58;11.90;99.90
19799;DHT22;10059;59.850;10.454;2022-07-23T03:25:25;11.90;99.90
19799;DHT22;10059;59.850;10.454;2022-07-23T03:27:52;11.90;99.90
19799;DHT22;10059;59.850;10.454;2022-07-23T03:30:44;12.00;99.90
19799;DHT22;10059;59.850;10.454;2022-07-23T03:33:12;12.00;99.90
19799;DHT22;10059;59.850;10.454;2022-07-23T03:35:44;12.10;99.90
19799;DHT22;10059;59.850;10.454;2022-07-23T03:38:28;12.10;99.90
19799;DHT22;10059;59.850;10.454;2022-07-23T03:40:55;12.10;99.90
19799;DHT22;10059;59.850;10.454;2022-07-23T03:43:21;12.20;99.90
19799;DHT22;10059;59.850;10.454;2022-07-23T03:46:04;12.40;99.90
19799;DHT22;10059;59.850;10.454;2022-07-23T03:48:45;12.50;99.90
19799;DHT22;10059;59.850;10.454;2022-07-23T03:51:12;12.60;99.90
19799;DHT22;10059;59.850;10.454;2022-07-23T03:53:39;12.60;99.90
19799;DHT22;10059;59.850;10.454;2022-07-23T03:56:07;12.60;99.90
19799;DHT22;10059;59.850;10.454;2022-07-23T03:58:33;12.70;99.90
19799;DHT22;10059;59.850;10.454;2022-07-23T04:01:00;12.70;99.90
19799;DHT22;10059;59.850;10.454;2022-07-23T04:03:52;12.70;99.90
19799;DHT22;10059;59.850;10.454;2022-07-23T04:06:34;12.70;99.90
19799;DHT22;10059;59.850;10.454;2022-07-23T04:09:02;12.70;99.90
19799;DHT22;10059;59.850;10.454;2022-07-23T04:11:30;12.70;99.90
19799;DHT22;10059;59.850;10.454;2022-07-23T04:14:01;12.70;99.90
19799;DHT22;10059;59.850;10.454;2022-07-23T04:19:32;12.70;99.90
19799;DHT22;10059;59.850;10.454;2022-07-23T04:22:22;12.80;99.90
19799;DHT22;10059;59.850;10.454;2022-07-23T04:24:49;12.90;99.90
19799;DHT22;10059;59.850;10.454;2022-07-23T04:27:16;13.00;99.90
19799;DHT22;10059;59.850;10.454;2022-07-23T04:29:43;13.20;99.90
19799;DHT22;10059;59.850;10.454;2022-07-23T04:32:10;13.40;99.90
19799;DHT22;10059;59.850;10.454;2022-07-23T04:34:38;13.40;99.90
19799;DHT22;10059;59.850;10.454;2022-07-23T04:37:05;13.50;99.90
19799;DHT22;10059;59.850;10.454;2022-07-23T04:39:40;13.70;99.90
19799;DHT22;10059;59.850;10.454;2022-07-23T04:42:22;13.80;99.90
19799;DHT22;10059;59.850;10.454;2022-07-23T04:44:49;13.90;99.90
19799;DHT22;10059;59.850;10.454;2022-07-23T04:47:16;14.10;99.90
19799;DHT22;10059;59.850;10.454;2022-07-23T04:50:02;14.30;99.90
19799;DHT22;10059;59.850;10.454;2022-07-23T04:52:29;14.60;99.90
19799;DHT22;10059;59.850;10.454;2022-07-23T04:55:10;14.70;99.90
19799;DHT22;10059;59.850;10.454;2022-07-23T04:57:39;14.80;99.90
19799;DHT22;10059;59.850;10.454;2022-07-23T05:00:07;15.00;99.90
19799;DHT22;10059;59.850;10.454;2022-07-23T05:02:35;15.20;99.90
19799;DHT22;10059;59.850;10.454;2022-07-23T05:05:03;15.50;99.90
19799;DHT22;10059;59.850;10.454;2022-07-23T05:07:30;15.50;99.90
19799;DHT22;10059;59.850;10.454;2022-07-23T05:09:57;15.50;99.90
19799;DHT22;10059;59.850;10.454;2022-07-23T05:12:24;15.50;99.90
19799;DHT22;10059;59.850;10.454;2022-07-23T05:14:51;15.70;99.90
19799;DHT22;10059;59.850;10.454;2022-07-23T05:17:18;15.90;99.90
19799;DHT22;10059;59.850;10.454;2022-07-23T05:22:43;16.20;99.90
19799;DHT22;10059;59.850;10.454;2022-07-23T05:25:30;16.40;99.90
19799;DHT22;10059;59.850;10.454;2022-07-23T05:27:57;16.40;99.90
19799;DHT22;10059;59.850;10.454;2022-07-23T05:30:24;16.50;99.90
19799;DHT22;10059;59.850;10.454;2022-07-23T05:32:50;16.90;99.90
19799;DHT22;10059;59.850;10.454;2022-07-23T05:35:18;17.00;99.90
19799;DHT22;10059;59.850;10.454;2022-07-23T05:37:46;17.20;99.90
19799;DHT22;10059;59.850;10.454;2022-07-23T05:40:13;17.40;99.90
19799;DHT22;10059;59.850;10.454;2022-07-23T05:42:56;17.60;99.90
19799;DHT22;10059;59.850;10.454;2022-07-23T05:45:40;17.60;99.90
19799;DHT22;10059;59.850;10.454;2022-07-23T05:48:07;17.90;99.90
19799;DHT22;10059;59.850;10.454;2022-07-23T05:50:34;18.00;99.90
19799;DHT22;10059;59.850;10.454;2022-07-23T05:53:02;18.10;99.90
19799;DHT22;10059;59.850;10.454;2022-07-23T05:55:29;18.20;99.90
19799;DHT22;10059;59.850;10.454;2022-07-23T05:58:08;18.40;99.90
19799;DHT22;10059;59.850;10.454;2022-07-23T06:00:35;18.60;99.90
19799;DHT22;10059;59.850;10.454;2022-07-23T06:03:02;18.60;99.90
19799;DHT22;10059;59.850;10.454;2022-07-23T06:05:56;18.80;99.90
19799;DHT22;10059;59.850;10.454;2022-07-23T06:08:24;19.00;99.90
19799;DHT22;10059;59.850;10.454;2022-07-23T06:10:51;18.80;99.90
19799;DHT22;10059;59.850;10.454;2022-07-23T06:13:18;18.80;99.90
19799;DHT22;10059;59.850;10.454;2022-07-23T06:15:45;18.80;99.90
19799;DHT22;10059;59.850;10.454;2022-07-23T06:18:42;18.80;99.90
19799;DHT22;10059;59.850;10.454;2022-07-23T06:24:01;19.20;99.90
19799;DHT22;10059;59.850;10.454;2022-07-23T06:26:42;19.40;99.90
19799;DHT22;10059;59.850;10.454;2022-07-23T06:29:08;19.60;99.90
19799;DHT22;10059;59.850;10.454;2022-07-23T06:31:36;19.30;99.90
19799;DHT22;10059;59.850;10.454;2022-07-23T06:34:26;19.20;99.90
19799;DHT22;10059;59.850;10.454;2022-07-23T06:36:53;19.60;99.90
19799;DHT22;10059;59.850;10.454;2022-07-23T06:39:22;19.60;99.90
19799;DHT22;10059;59.850;10.454;2022-07-23T06:41:48;19.70;99.90
19799;DHT22;10059;59.850;10.454;2022-07-23T06:44:15;20.20;99.90
19799;DHT22;10059;59.850;10.454;2022-07-23T06:46:42;20.60;99.90
19799;DHT22;10059;59.850;10.454;2022-07-23T06:49:09;20.60;99.90
19799;DHT22;10059;59.850;10.454;2022-07-23T06:51:36;20.00;99.90
19799;DHT22;10059;59.850;10.454;2022-07-23T06:54:04;19.80;99.90
19799;DHT22;10059;59.850;10.454;2022-07-23T06:56:32;20.30;99.90
19799;DHT22;10059;59.850;10.454;2022-07-23T06:58:59;20.40;99.90
19799;DHT22;10059;59.850;10.454;2022-07-23T07:01:26;20.80;99.90
19799;DHT22;10059;59.850;10.454;2022-07-23T07:03:52;20.80;99.90
19799;DHT22;10059;59.850;10.454;2022-07-23T07:06:19;20.60;99.90
19799;DHT22;10059;59.850;10.454;2022-07-23T07:08:46;20.30;99.90
19799;DHT22;10059;59.850;10.454;2022-07-23T07:11:13;20.80;99.90
19799;DHT22;10059;59.850;10.454;2022-07-23T07:13:41;21.30;99.90
19799;DHT22;10059;59.850;10.454;2022-07-23T07:16:08;21.70;99.90
19799;DHT22;10059;59.850;10.454;2022-07-23T07:18:35;21.70;99.90
19799;DHT22;10059;59.850;10.454;2022-07-23T07:21:02;21.80;99.90
19799;DHT22;10059;59.850;10.454;2022-07-23T07:23:29;21.70;99.90
19799;DHT22;10059;59.850;10.454;2022-07-23T07:25:56;21.60;99.90
19799;DHT22;10059;59.850;10.454;2022-07-23T07:28:23;21.70;99.90
19799;DHT22;10059;59.850;10.454;2022-07-23T07:30:51;22.10;99.90
19799;DHT22;10059;59.850;10.454;2022-07-23T07:33:18;22.50;99.90
19799;DHT22;10059;59.850;10.454;2022-07-23T07:35:46;22.40;99.90
19799;DHT22;10059;59.850;10.454;2022-07-23T07:38:13;22.60;99.90
19799;DHT22;10059;59.850;10.454;2022-07-23T07:40:40;22.60;99.90
19799;DHT22;10059;59.850;10.454;2022-07-23T07:43:07;22.50;99.90
19799;DHT22;10059;59.850;10.454;2022-07-23T07:45:34;22.70;99.90
19799;DHT22;10059;59.850;10.454;2022-07-23T07:48:02;22.50;99.90
19799;DHT22;10059;59.850;10.454;2022-07-23T07:50:29;22.20;99.90
19799;DHT22;10059;59.850;10.454;2022-07-23T07:52:56;22.30;99.90
19799;DHT22;10059;59.850;10.454;2022-07-23T07:55:23;22.80;99.90
19799;DHT22;10059;59.850;10.454;2022-07-23T07:57:50;22.90;99.90
19799;DHT22;10059;59.850;10.454;2022-07-23T08:00:17;23.10;99.90
19799;DHT22;10059;59.850;10.454;2022-07-23T08:02:45;23.50;99.90
19799;DHT22;10059;59.850;10.454;2022-07-23T08:05:14;22.60;99.90
19799;DHT22;10059;59.850;10.454;2022-07-23T08:07:45;22.90;99.90
19799;DHT22;10059;59.850;10.454;2022-07-23T08:10:12;23.30;99.90
19799;DHT22;10059;59.850;10.454;2022-07-23T08:12:40;23.80;99.90
19799;DHT22;10059;59.850;10.454;2022-07-23T08:15:08;23.90;99.90
19799;DHT22;10059;59.850;10.454;2022-07-23T08:17:35;24.40;99.90
19799;DHT22;10059;59.850;10.454;2022-07-23T08:20:03;24.10;99.90
19799;DHT22;10059;59.850;10.454;2022-07-23T08:22:49;23.90;99.90
19799;DHT22;10059;59.850;10.454;2022-07-23T08:25:19;22.90;99.90
19799;DHT22;10059;59.850;10.454;2022-07-23T08:27:46;22.70;99.90
19799;DHT22;10059;59.850;10.454;2022-07-23T08:30:14;23.50;99.90
19799;DHT22;10059;59.850;10.454;2022-07-23T08:32:53;23.70;99.90
19799;DHT22;10059;59.850;10.454;2022-07-23T08:35:25;24.20;99.90
19799;DHT22;10059;59.850;10.454;2022-07-23T08:37:54;23.60;99.90
19799;DHT22;10059;59.850;10.454;2022-07-23T08:40:22;24.20;99.90
19799;DHT22;10059;59.850;10.454;2022-07-23T08:42:50;24.00;99.90
19799;DHT22;10059;59.850;10.454;2022-07-23T08:45:18;24.10;99.90
19799;DHT22;10059;59.850;10.454;2022-07-23T08:47:49;23.70;99.90
19799;DHT22;10059;59.850;10.454;2022-07-23T08:50:16;23.30;99.90
19799;DHT22;10059;59.850;10.454;2022-07-23T08:52:43;23.50;99.90
19799;DHT22;10059;59.850;10.454;2022-07-23T08:55:12;23.90;99.90
19799;DHT22;10059;59.850;10.454;2022-07-23T08:57:39;24.00;99.90
19799;DHT22;10059;59.850;10.454;2022-07-23T09:00:07;23.90;99.90
19799;DHT22;10059;59.850;10.454;2022-07-23T09:02:41;23.40;99.90
19799;DHT22;10059;59.850;10.454;2022-07-23T09:05:09;23.70;99.90
19799;DHT22;10059;59.850;10.454;2022-07-23T09:07:36;24.10;99.90
19799;DHT22;10059;59.850;10.454;2022-07-23T09:10:09;23.80;99.90
19799;DHT22;10059;59.850;10.454;2022-07-23T09:12:38;24.00;99.90
19799;DHT22;10059;59.850;10.454;2022-07-23T09:15:07;24.30;99.90
19799;DHT22;10059;59.850;10.454;2022-07-23T09:17:40;24.10;99.90
19799;DHT22;10059;59.850;10.454;2022-07-23T09:20:09;24.50;99.90
19799;DHT22;10059;59.850;10.454;2022-07-23T09:22:36;24.30;99.90
19799;DHT22;10059;59.850;10.454;2022-07-23T09:25:09;24.00;99.90
19799;DHT22;10059;59.850;10.454;2022-07-23T09:28:01;24.10;99.90
19799;DHT22;10059;59.850;10.454;2022-07-23T09:30:31;23.70;99.90
19799;DHT22;10059;59.850;10.454;2022-07-23T09:33:08;24.20;99.90
19799;DHT22;10059;59.850;10.454;2022-07-23T09:35:49;23.90;99.90
19799;DHT22;10059;59.850;10.454;2022-07-23T09:38:17;23.60;99.90
19799;DHT22;10059;59.850;10.454;2022-07-23T09:40:45;24.20;99.90
19799;DHT22;10059;59.850;10.454;2022-07-23T09:43:26;24.30;99.90
19799;DHT22;10059;59.850;10.454;2022-07-23T09:45:53;24.00;99.90
19799;DHT22;10059;59.850;10.454;2022-07-23T09:48:40;24.60;99.90
19799;DHT22;10059;59.850;10.454;2022-07-23T09:51:07;24.90;99.90
19799;DHT22;10059;59.850;10.454;2022-07-23T09:53:34;24.20;99.90
19799;DHT22;10059;59.850;10.454;2022-07-23T09:56:01;24.40;99.90
19799;DHT22;10059;59.850;10.454;2022-07-23T09:58:30;24.20;99.90
19799;DHT22;10059;59.850;10.454;2022-07-23T10:00:58;24.50;99.90
19799;DHT22;10059;59.850;10.454;2022-07-23T10:03:26;24.80;99.90
19799;DHT22;10059;59.850;10.454;2022-07-23T10:05:53;24.90;99.90
19799;DHT22;10059;59.850;10.454;2022-07-23T10:08:20;24.40;99.90
19799;DHT22;10059;59.850;10.454;2022-07-23T10:10:48;24.40;99.90
19799;DHT22;10059;59.850;10.454;2022-07-23T10:13:17;24.20;99.90
19799;DHT22;10059;59.850;10.454;2022-07-23T10:16:03;24.70;99.90
19799;DHT22;10059;59.850;10.454;2022-07-23T10:18:30;24.90;99.90
19799;DHT22;10059;59.850;10.454;2022-07-23T10:20:58;25.10;99.90
19799;DHT22;10059;59.850;10.454;2022-07-23T10:23:35;24.40;99.90
19799;DHT22;10059;59.850;10.454;2022-07-23T10:26:10;24.00;99.90
19799;DHT22;10059;59.850;10.454;2022-07-23T10:29:02;24.00;99.90
19799;DHT22;10059;59.850;10.454;2022-07-23T10:31:42;23.50;99.90
19799;DHT22;10059;59.850;10.454;2022-07-23T10:34:21;23.40;99.90
19799;DHT22;10059;59.850;10.454;2022-07-23T10:36:53;23.30;99.90
19799;DHT22;10059;59.850;10.454;2022-07-23T10:39:24;23.60;99.90
19799;DHT22;10059;59.850;10.454;2022-07-23T10:41:52;23.60;99.90
19799;DHT22;10059;59.850;10.454;2022-07-23T10:44:38;23.50;99.90
19799;DHT22;10059;59.850;10.454;2022-07-23T10:47:07;23.80;99.90
19799;DHT22;10059;59.850;10.454;2022-07-23T10:49:54;24.10;99.90
19799;DHT22;10059;59.850;10.454;2022-07-23T10:52:41;24.30;99.90
19799;DHT22;10059;59.850;10.454;2022-07-23T10:58:05;24.00;99.90
19799;DHT22;10059;59.850;10.454;2022-07-23T11:00:34;23.80;99.90
19799;DHT22;10059;59.850;10.454;2022-07-23T11:03:04;23.80;99.90
19799;DHT22;10059;59.850;10.454;2022-07-23T11:05:40;24.30;99.90
19799;DHT22;10059;59.850;10.454;2022-07-23T11:08:17;23.90;99.90
19799;DHT22;10059;59.850;10.454;2022-07-23T11:10:47;24.30;99.90
19799;DHT22;10059;59.850;10.454;2022-07-23T11:13:39;23.90;99.90
19799;DHT22;10059;59.850;10.454;2022-07-23T11:16:13;24.30;99.90
19799;DHT22;10059;59.850;10.454;2022-07-23T11:18:59;24.70;99.90
19799;DHT22;10059;59.850;10.454;2022-07-23T11:21:49;24.90;99.90
19799;DHT22;10059;59.850;10.454;2022-07-23T11:24:21;25.50;99.90
19799;DHT22;10059;59.850;10.454;2022-07-23T11:27:03;24.90;99.90
19799;DHT22;10059;59.850;10.454;2022-07-23T11:29:44;24.20;99.90
19799;DHT22;10059;59.850;10.454;2022-07-23T11:32:28;24.60;99.90
19799;DHT22;10059;59.850;10.454;2022-07-23T11:34:57;24.80;99.90
19799;DHT22;10059;59.850;10.454;2022-07-23T11:37:32;24.90;99.90
19799;DHT22;10059;59.850;10.454;2022-07-23T11:40:00;24.80;99.90
19799;DHT22;10059;59.850;10.454;2022-07-23T11:42:27;24.80;99.90
19799;DHT22;10059;59.850;10.454;2022-07-23T11:44:54;25.20;99.90
19799;DHT22;10059;59.850;10.454;2022-07-23T11:47:23;25.00;99.90
19799;DHT22;10059;59.850;10.454;2022-07-23T11:49:54;25.60;99.90
19799;DHT22;10059;59.850;10.454;2022-07-23T11:52:23;25.30;99.90
19799;DHT22;10059;59.850;10.454;2022-07-23T11:54:52;24.80;99.90
19799;DHT22;10059;59.850;10.454;2022-07-23T11:57:23;25.00;99.90
19799;DHT22;10059;59.850;10.454;2022-07-23T11:59:52;25.40;99.90
19799;DHT22;10059;59.850;10.454;2022-07-23T12:02:20;25.60;99.90
19799;DHT22;10059;59.850;10.454;2022-07-23T12:04:49;25.20;99.90
19799;DHT22;10059;59.850;10.454;2022-07-23T12:07:25;24.70;99.90
19799;DHT22;10059;59.850;10.454;2022-07-23T12:09:53;24.30;99.90
19799;DHT22;10059;59.850;10.454;2022-07-23T12:12:21;24.60;99.90
19799;DHT22;10059;59.850;10.454;2022-07-23T12:14:49;24.10;99.90
19799;DHT22;10059;59.850;10.454;2022-07-23T12:17:16;24.30;99.90
19799;DHT22;10059;59.850;10.454;2022-07-23T12:19:44;24.20;99.90
19799;DHT22;10059;59.850;10.454;2022-07-23T12:22:11;24.20;99.90
19799;DHT22;10059;59.850;10.454;2022-07-23T12:25:03;23.90;99.90
19799;DHT22;10059;59.850;10.454;2022-07-23T12:27:30;23.90;99.90
19799;DHT22;10059;59.850;10.454;2022-07-23T12:29:57;23.70;99.90
19799;DHT22;10059;59.850;10.454;2022-07-23T12:32:26;23.30;99.90
19799;DHT22;10059;59.850;10.454;2022-07-23T12:35:04;23.10;99.90
19799;DHT22;10059;59.850;10.454;2022-07-23T12:37:33;23.40;99.90
19799;DHT22;10059;59.850;10.454;2022-07-23T12:40:20;23.80;99.90
19799;DHT22;10059;59.850;10.454;2022-07-23T12:42:48;23.50;99.90
19799;DHT22;10059;59.850;10.454;2022-07-23T12:45:16;23.40;99.90
19799;DHT22;10059;59.850;10.454;2022-07-23T12:47:59;23.80;99.90
19799;DHT22;10059;59.850;10.454;2022-07-23T12:50:41;23.50;99.90
19799;DHT22;10059;59.850;10.454;2022-07-23T12:53:10;23.40;99.90
19799;DHT22;10059;59.850;10.454;2022-07-23T12:55:40;22.90;99.90
19799;DHT22;10059;59.850;10.454;2022-07-23T12:58:12;22.80;99.90
19799;DHT22;10059;59.850;10.454;2022-07-23T13:00:59;22.90;99.90
19799;DHT22;10059;59.850;10.454;2022-07-23T13:03:29;22.90;99.90
19799;DHT22;10059;59.850;10.454;2022-07-23T13:05:59;23.00;99.90
19799;DHT22;10059;59.850;10.454;2022-07-23T13:08:27;22.80;99.90
19799;DHT22;10059;59.850;10.454;2022-07-23T13:10:57;22.90;99.90
19799;DHT22;10059;59.850;10.454;2022-07-23T13:13:26;23.10;99.90
19799;DHT22;10059;59.850;10.454;2022-07-23T13:15:54;22.80;99.90
19799;DHT22;10059;59.850;10.454;2022-07-23T13:18:21;22.70;99.90
19799;DHT22;10059;59.850;10.454;2022-07-23T13:20:49;22.20;99.90
19799;DHT22;10059;59.850;10.454;2022-07-23T13:23:17;22.00;99.90
19799;DHT22;10059;59.850;10.454;2022-07-23T13:25:45;22.30;99.90
19799;DHT22;10059;59.850;10.454;2022-07-23T13:28:14;22.10;99.90
19799;DHT22;10059;59.850;10.454;2022-07-23T13:30:41;22.20;99.90
19799;DHT22;10059;59.850;10.454;2022-07-23T13:33:08;22.30;99.90
19799;DHT22;10059;59.850;10.454;2022-07-23T13:35:36;22.40;99.90
19799;DHT22;10059;59.850;10.454;2022-07-23T13:38:04;22.50;99.90
19799;DHT22;10059;59.850;10.454;2022-07-23T13:40:33;22.60;99.90
19799;DHT22;10059;59.850;10.454;2022-07-23T13:43:00;22.80;99.90
19799;DHT22;10059;59.850;10.454;2022-07-23T13:45:28;22.80;99.90
19799;DHT22;10059;59.850;10.454;2022-07-23T13:47:55;22.50;99.90
19799;DHT22;10059;59.850;10.454;2022-07-23T13:50:22;22.40;99.90
19799;DHT22;10059;59.850;10.454;2022-07-23T13:52:49;22.50;99.90
19799;DHT22;10059;59.850;10.454;2022-07-23T13:55:16;22.50;99.90
19799;DHT22;10059;59.850;10.454;2022-07-23T13:57:43;22.50;99.90
19799;DHT22;10059;59.850;10.454;2022-07-23T14:00:11;22.70;99.90
19799;DHT22;10059;59.850;10.454;2022-07-23T14:02:40;22.50;99.90
19799;DHT22;10059;59.850;10.454;2022-07-23T14:05:08;22.40;99.90
19799;DHT22;10059;59.850;10.454;2022-07-23T14:07:36;22.60;99.90
19799;DHT22;10059;59.850;10.454;2022-07-23T14:10:04;22.50;99.90
19799;DHT22;10059;59.850;10.454;2022-07-23T14:12:31;22.20;99.90
19799;DHT22;10059;59.850;10.454;2022-07-23T14:14:58;21.90;99.90
19799;DHT22;10059;59.850;10.454;2022-07-23T14:17:25;21.70;99.90
19799;DHT22;10059;59.850;10.454;2022-07-23T14:19:53;21.30;99.90
19799;DHT22;10059;59.850;10.454;2022-07-23T14:22:20;21.40;99.90
19799;DHT22;10059;59.850;10.454;2022-07-23T14:24:47;21.50;99.90
19799;DHT22;10059;59.850;10.454;2022-07-23T14:27:14;21.40;99.90
19799;DHT22;10059;59.850;10.454;2022-07-23T14:29:41;21.50;99.90
19799;DHT22;10059;59.850;10.454;2022-07-23T14:32:08;21.50;99.90
19799;DHT22;10059;59.850;10.454;2022-07-23T14:34:35;21.50;99.90
19799;DHT22;10059;59.850;10.454;2022-07-23T14:37:04;21.60;99.90
19799;DHT22;10059;59.850;10.454;2022-07-23T14:39:30;21.10;99.90
19799;DHT22;10059;59.850;10.454;2022-07-23T14:41:57;20.90;99.90
19799;DHT22;10059;59.850;10.454;2022-07-23T14:44:24;21.20;99.90
19799;DHT22;10059;59.850;10.454;2022-07-23T14:46:52;21.40;99.90
19799;DHT22;10059;59.850;10.454;2022-07-23T14:49:19;21.30;99.90
19799;DHT22;10059;59.850;10.454;2022-07-23T14:51:46;21.00;99.90
19799;DHT22;10059;59.850;10.454;2022-07-23T14:54:14;21.00;99.90
19799;DHT22;10059;59.850;10.454;2022-07-23T14:56:42;20.90;99.90
19799;DHT22;10059;59.850;10.454;2022-07-23T14:59:09;21.10;99.90
19799;DHT22;10059;59.850;10.454;2022-07-23T15:01:36;21.00;99.90
19799;DHT22;10059;59.850;10.454;2022-07-23T15:04:04;21.10;99.90
19799;DHT22;10059;59.850;10.454;2022-07-23T15:06:31;20.90;99.90
19799;DHT22;10059;59.850;10.454;2022-07-23T15:08:58;21.10;99.90
19799;DHT22;10059;59.850;10.454;2022-07-23T15:11:27;21.50;99.90
19799;DHT22;10059;59.850;10.454;2022-07-23T15:13:56;21.90;99.90
19799;DHT22;10059;59.850;10.454;2022-07-23T15:16:23;22.10;99.90
19799;DHT22;10059;59.850;10.454;2022-07-23T15:18:50;22.10;99.90
19799;DHT22;10059;59.850;10.454;2022-07-23T15:21:17;22.20;99.90
19799;DHT22;10059;59.850;10.454;2022-07-23T15:23:44;22.30;99.90
19799;DHT22;10059;59.850;10.454;2022-07-23T15:26:11;22.60;99.90
19799;DHT22;10059;59.850;10.454;2022-07-23T15:28:41;22.90;99.90
19799;DHT22;10059;59.850;10.454;2022-07-23T15:31:08;22.60;99.90
19799;DHT22;10059;59.850;10.454;2022-07-23T15:33:35;22.90;99.90
19799;DHT22;10059;59.850;10.454;2022-07-23T15:36:03;23.30;99.90
19799;DHT22;10059;59.850;10.454;2022-07-23T15:38:30;23.60;99.90
19799;DHT22;10059;59.850;10.454;2022-07-23T15:40:57;23.50;99.90
19799;DHT22;10059;59.850;10.454;2022-07-23T15:43:25;23.00;99.90
19799;DHT22;10059;59.850;10.454;2022-07-23T15:45:53;23.10;99.90
19799;DHT22;10059;59.850;10.454;2022-07-23T15:48:20;23.60;99.90
19799;DHT22;10059;59.850;10.454;2022-07-23T15:50:48;23.80;99.90
19799;DHT22;10059;59.850;10.454;2022-07-23T15:53:15;23.60;99.90
19799;DHT22;10059;59.850;10.454;2022-07-23T15:55:42;23.70;99.90